EHGR/GLZ METAR and TAF weather

Enter ICAO airport designator
Station Type Date Time Source
EHGR METAR 2022/06/30 01:25 UTC NOAA

EHGR 300125Z AUTO 00000KT 9999 NCD 16/15 Q1010 BLU


Station Type Date Time Source
EHGR Decoded METAR 2022/06/30 01:25 UTC NOAA

Gilze-Rijen, Netherlands (EHGR) 51-34N 004-56E 24M
Jun 29, 2022 - 09:25 PM EDT / 2022.06.30 0125 UTC
Wind: Calm:0
Visibility: greater than 7 mile(s):0
Temperature: 60 F (16 C)
Dew Point: 59 F (15 C)
Relative Humidity: 93%
Pressure (altimeter): 29.83 in. Hg (1010 hPa)
ob: EHGR 300125Z AUTO 00000KT 9999 NCD 16/15 Q1010 BLU
cycle: 1

Station Type Date Time Source
EHGR TAF 2022/06/29 09:36 UTC NOAA

TAF TAF EHGR 291529Z 2909/2921 CNL

Example: see airport list